LFRSLFRK

Guest
Details From LFRS - Nantes_Atlantique
To LFRK - Caen Carpiquet
Flight Number -
Tags generated
Created
Modified
Stats Distance 130 nm / 240 km
Max Altitude 11,500 ft / 3,505 m
Waypoints 3
Social Downloads 1
Likes 0
Share VATSIM

Download

Looking for another format? Having issues loading an existing format? Contact us
Advertisement - Login to hide

Notes

Basic altitude profile: - Ascent Rate: 1000ft/min - Ascent Speed: 150kts - Cruise Altitude: 15000ft - Cruise Speed: 170kts - Descent Rate: 800ft/min - Descent Speed: 120kts Options: - Use NATs: yes - Use PACOTS: yes - Use low airways: yes - Use high airways: yes

Route

LFRS LGL64 LFRK

ID Type Via Altitude Latitude Longitude Leg Dist Tot Dist Heading (true) Name
O LFRS APT - 0 ft / 0 m 47.15604˚ -1.61119˚ - 0 nm - Nantes_Atlantique
LGL64 FIX - 11,500 ft / 3,505 m 48.33333˚ -0.93333˚ 75 nm 75 nm 21° / 21° -
O LFRK APT - 0 ft / 0 m 49.17512˚ -0.45194˚ 54 nm 129 nm 20° / 21° Caen Carpiquet

Altitude Profile

Advertisement - Login to hide

LFRS

Details ICAO LFRS (NTE)
Name Nantes_Atlantique
Region France
Timezone Europe/Paris (UTC+2.0)
Stats Elevation 89 ft / 27 m (AMSL)
Location 47.156040° -1.611186°
Runways 2
Magnetic Variation 0.452° W

METAR

LFRS 202000Z AUTO 02003KT CAVOK 18/07 Q1015 NOSIG

Decode

TAF

TAF LFRS 201700Z 2018/2124 06006KT CAVOK TEMPO 2114/2121 -SHRA SCT050CB PROB30 TEMPO 2115/2118 4000 -TSRA BKN050CB

Decode

Departure Runways

ID Width Length Bearing (true) Bearing (mag) Surface Threshold Offset Overrun Length
03 148 ft / 45 m 9,526 ft / 2,903 m 27.35° 27.80° Asphalt 0 ft / 0 m 0 ft / 0 m
13 100 ft / 30 m 1,999 ft / 609 m 125.55° 126.00° Concrete 0 ft / 0 m 0 ft / 0 m
21 148 ft / 45 m 9,526 ft / 2,903 m 207.37° 207.82° Asphalt 689 ft / 210 m 0 ft / 0 m
31 100 ft / 30 m 1,999 ft / 609 m 305.56° 306.01° Concrete 0 ft / 0 m 0 ft / 0 m

LFRK

Details ICAO LFRK (CFR)
Name Caen Carpiquet
Region France
Timezone Europe/Paris (UTC+2.0)
Stats Elevation 256 ft / 78 m (AMSL)
Location 49.175122° -0.451941°
Runways 2
Magnetic Variation 0.261° W

METAR

LFRK 202000Z AUTO 34003KT 5000 BR NSC 12/10 Q1018 NOSIG

Decode

TAF

Not found

Destination Runways

ID Width Length Bearing (true) Bearing (mag) Surface Threshold Offset Overrun Length
06 98 ft / 30 m 3,880 ft / 1,183 m 51.68° 51.94° Asphalt 0 ft / 0 m 0 ft / 0 m
13 148 ft / 45 m 6,215 ft / 1,894 m 125.34° 125.60° Asphalt 984 ft / 300 m 0 ft / 0 m
24 98 ft / 30 m 3,880 ft / 1,183 m 231.69° 231.95° Asphalt 0 ft / 0 m 0 ft / 0 m
31 148 ft / 45 m 6,215 ft / 1,894 m 305.36° 305.62° Asphalt 0 ft / 0 m 0 ft / 0 m

Approach Navaids

Runway Type Ident Frequency Range Bearing (true) Bearing (mag) Slope Elevation
31 Localiser CN 110.95 MHz 18 nm / 33 km 305.34° 305.60° - 231 ft / 70 m (AMSL)
31 Glidescope CN 110.95 MHz 10 nm / 19 km 305.35° 305.61° 3.00° 233 ft / 71 m (AMSL)
31 DME CN 110.95 MHz 18 nm / 33 km - - - 233 ft / 71 m (AMSL)

Popular Alternatives